Time;durP1;ratioP1;P1;durP2;ratioP2;P2;SDS_P1;SDS_P2;PMS_P1;PMS_P2;Temp;Humidity;BMP_temperature;BMP_pressure;BME280_temperature;BME280_humidity;BME280_pressure;Samples;Min_cycle;Max_cycle;Signal;HPM_P1;HPM_P2
2022/03/06 00:00:21;;;;;;;13.93;9.20;;;;;;;2.30;44.87;100265.28;1085080;54;20038;-77
2022/03/06 00:01:26;;;;;;;13.52;8.52;;;;;;;2.29;44.83;100271.50;1086746;54;20745;-78
2022/03/06 00:02:28;;;;;;;14.90;8.77;;;;;;;2.36;44.67;100264.09;1087040;54;20035;-77
2022/03/06 00:03:32;;;;;;;13.23;8.77;;;;;;;2.37;44.75;100259.66;1087190;46;20045;-77
2022/03/06 00:04:34;;;;;;;14.93;8.75;;;;;;;2.32;44.58;100260.78;1087291;54;20086;-77
2022/03/06 00:05:38;;;;;;;18.48;9.98;;;;;;;2.30;44.84;100256.53;1087052;54;20038;-77
2022/03/06 00:06:40;;;;;;;14.50;9.35;;;;;;;2.28;44.90;100263.69;1086383;54;20065;-78
2022/03/06 00:07:44;;;;;;;13.63;9.25;;;;;;;2.27;45.10;100264.63;1084800;54;20038;-78
2022/03/06 00:08:46;;;;;;;16.83;10.32;;;;;;;2.26;44.86;100260.28;1084979;54;20050;-78
2022/03/06 00:09:50;;;;;;;15.63;9.85;;;;;;;2.26;45.17;100253.22;1085318;54;20084;-78
2022/03/06 00:10:52;;;;;;;17.50;10.85;;;;;;;2.26;44.92;100260.28;1085218;54;20038;-78
2022/03/06 00:11:57;;;;;;;16.17;10.15;;;;;;;2.23;45.38;100263.94;1085160;54;20049;-78
2022/03/06 00:12:58;;;;;;;16.45;9.68;;;;;;;2.20;45.18;100266.72;1085154;54;20054;-78
2022/03/06 00:14:05;;;;;;;14.82;9.77;;;;;;;2.22;45.46;100264.03;1085484;54;20050;-78
2022/03/06 00:15:07;;;;;;;13.77;9.50;;;;;;;2.21;45.17;100262.31;1085274;54;20030;-77
2022/03/06 00:16:11;;;;;;;15.20;9.80;;;;;;;2.22;45.24;100264.03;1085483;39;20631;-77
2022/03/06 00:17:13;;;;;;;17.25;10.02;;;;;;;2.21;45.09;100264.97;1085385;54;20046;-78
2022/03/06 00:18:17;;;;;;;13.98;9.02;;;;;;;2.24;45.16;100262.13;1086423;54;20031;-76
2022/03/06 00:19:19;;;;;;;14.32;8.60;;;;;;;2.27;45.10;100257.53;1087054;54;20034;-78
2022/03/06 00:20:25;;;;;;;14.98;9.52;;;;;;;2.32;44.90;100254.63;1087135;54;20568;-78
2022/03/06 00:21:29;;;;;;;14.38;9.20;;;;;;;2.34;44.91;100264.19;1087579;46;20041;-77
2022/03/06 00:22:31;;;;;;;14.93;8.95;;;;;;;2.37;44.95;100262.28;1086843;54;20039;-77
2022/03/06 00:23:37;;;;;;;15.75;9.43;;;;;;;2.33;44.82;100257.22;1087005;54;20114;-77
2022/03/06 00:24:38;;;;;;;16.25;10.20;;;;;;;2.36;45.18;100269.38;1086809;54;20034;-77
2022/03/06 00:25:43;;;;;;;14.15;8.98;;;;;;;2.36;44.99;100276.44;1086905;54;20034;-78
2022/03/06 00:26:44;;;;;;;13.70;9.27;;;;;;;2.34;45.10;100268.59;1086258;54;20634;-76
2022/03/06 00:27:48;;;;;;;16.02;9.68;;;;;;;2.36;45.16;100266.72;1085998;54;20046;-78
2022/03/06 00:28:50;;;;;;;13.95;8.93;;;;;;;2.37;45.06;100264.94;1086236;54;20062;-77
2022/03/06 00:29:57;;;;;;;14.00;9.10;;;;;;;2.36;45.20;100266.72;1087878;39;20567;-77
2022/03/06 00:31:01;;;;;;;14.35;9.18;;;;;;;2.39;44.97;100263.06;1087128;54;20022;-78
2022/03/06 00:32:07;;;;;;;15.05;10.35;;;;;;;2.38;45.10;100264.88;1090496;46;20035;-78
2022/03/06 00:33:08;;;;;;;14.50;8.48;;;;;;;2.41;44.94;100261.19;1087993;46;20102;-77
2022/03/06 00:34:13;;;;;;;14.77;9.27;;;;;;;2.45;45.13;100260.09;1086973;39;20934;-78
2022/03/06 00:35:14;;;;;;;15.50;9.73;;;;;;;2.42;45.28;100254.97;1085093;54;20042;-77
2022/03/06 00:36:19;;;;;;;12.63;8.63;;;;;;;2.40;45.24;100252.44;1084758;54;20034;-78
2022/03/06 00:37:20;;;;;;;15.00;9.05;;;;;;;2.46;45.00;100253.84;1085098;54;20049;-78
2022/03/06 00:38:25;;;;;;;15.15;9.15;;;;;;;2.44;45.04;100243.38;1084903;54;20043;-78
2022/03/06 00:39:26;;;;;;;13.52;8.95;;;;;;;2.45;45.05;100255.66;1084966;54;20077;-78
2022/03/06 00:40:30;;;;;;;14.27;9.68;;;;;;;2.51;45.18;100254.44;1085274;39;20448;-78
2022/03/06 00:41:32;;;;;;;14.75;9.50;;;;;;;2.48;45.07;100259.91;1084913;54;21066;-78
2022/03/06 00:42:36;;;;;;;14.32;9.90;;;;;;;2.48;45.12;100262.53;1084923;54;20639;-77
2022/03/06 00:43:38;;;;;;;16.92;10.55;;;;;;;2.43;45.29;100267.25;1084616;54;20034;-78
2022/03/06 00:44:42;;;;;;;17.85;10.25;;;;;;;2.47;45.08;100263.47;1085152;39;20784;-77
2022/03/06 00:45:46;;;;;;;13.30;9.52;;;;;;;2.47;45.01;100261.69;1084978;54;20062;-77
2022/03/06 00:46:50;;;;;;;13.10;8.57;;;;;;;2.47;45.18;100263.47;1084369;54;20086;-77
2022/03/06 00:47:52;;;;;;;15.52;10.27;;;;;;;2.45;45.26;100265.38;1084722;54;20906;-77
2022/03/06 00:48:56;;;;;;;13.95;9.23;;;;;;;2.44;45.29;100258.38;1084673;54;20038;-77
2022/03/06 00:49:58;;;;;;;15.45;10.18;;;;;;;2.46;45.36;100261.78;1084271;54;20046;-77
2022/03/06 00:51:02;;;;;;;16.30;9.93;;;;;;;2.42;45.56;100262.91;1084887;39;20540;-78
2022/03/06 00:52:04;;;;;;;15.10;9.50;;;;;;;2.42;45.29;100268.19;1084290;54;20069;-76
2022/03/06 00:53:08;;;;;;;15.27;10.07;;;;;;;2.39;45.60;100270.97;1084678;54;20035;-77
2022/03/06 00:54:10;;;;;;;14.80;9.80;;;;;;;2.42;45.72;100270.81;1084892;54;20038;-77
2022/03/06 00:55:14;;;;;;;15.45;9.35;;;;;;;2.41;45.67;100271.75;1085217;54;20612;-78
2022/03/06 00:56:16;;;;;;;13.65;8.98;;;;;;;2.48;45.44;100273.09;1085376;54;20042;-78
2022/03/06 00:57:20;;;;;;;14.20;9.25;;;;;;;2.50;45.49;100272.06;1085849;54;20050;-76
2022/03/06 00:58:21;;;;;;;16.10;9.73;;;;;;;2.51;45.23;100270.28;1087503;54;20038;-76
2022/03/06 00:59:32;;;;;;;14.18;8.88;;;;;;;2.54;45.36;100270.13;1087531;46;20057;-76
2022/03/06 01:00:39;;;;;;;14.23;9.75;;;;;;;2.53;45.58;100272.84;1085737;54;20038;-77
2022/03/06 01:01:43;;;;;;;14.23;9.07;;;;;;;2.57;45.33;100277.00;1085062;54;20061;-78
2022/03/06 01:02:48;;;;;;;15.18;9.15;;;;;;;2.57;45.33;100272.56;1085347;54;20034;-77
2022/03/06 01:03:49;;;;;;;14.38;9.15;;;;;;;2.56;45.48;100272.66;1085380;54;20035;-78
2022/03/06 01:04:53;;;;;;;13.90;8.82;;;;;;;2.56;45.62;100273.50;1085037;54;20153;-78
2022/03/06 01:05:58;;;;;;;15.55;10.10;;;;;;;2.57;45.70;100275.22;1085348;54;20065;-77
2022/03/06 01:06:59;;;;;;;14.50;9.10;;;;;;;2.58;45.63;100271.63;1085346;54;20038;-78
2022/03/06 01:08:04;;;;;;;14.60;9.50;;;;;;;2.60;45.53;100272.41;1085461;54;20038;-78
2022/03/06 01:09:07;;;;;;;16.92;9.32;;;;;;;2.61;45.60;100275.88;1085228;54;20057;-77
2022/03/06 01:10:12;;;;;;;15.30;9.63;;;;;;;2.60;45.51;100280.31;1084702;47;20035;-78
2022/03/06 01:11:13;;;;;;;15.60;9.25;;;;;;;2.60;45.73;100271.53;1084500;54;20094;-78
2022/03/06 01:12:18;;;;;;;16.27;9.80;;;;;;;2.61;45.65;100281.16;1085090;54;20038;-78
2022/03/06 01:13:20;;;;;;;18.60;10.82;;;;;;;2.59;45.56;100278.63;1085018;54;20662;-78
2022/03/06 01:14:25;;;;;;;15.30;9.45;;;;;;;2.59;45.81;100281.25;1085989;39;20414;-77
2022/03/06 01:15:26;;;;;;;15.73;9.90;;;;;;;2.58;45.73;100282.19;1085576;54;20035;-77
2022/03/06 01:16:30;;;;;;;14.52;9.20;;;;;;;2.60;45.89;100279.44;1085702;47;20544;-78
2022/03/06 01:17:37;;;;;;;15.95;10.48;;;;;;;2.60;45.93;100272.41;1085433;47;20031;-77
2022/03/06 01:18:39;;;;;;;15.82;9.68;;;;;;;2.58;45.75;100273.44;1085788;54;20061;-78
2022/03/06 01:19:43;;;;;;;15.45;9.90;;;;;;;2.53;46.20;100278.97;1085644;54;20026;-77
2022/03/06 01:20:45;;;;;;;16.02;10.02;;;;;;;2.49;46.15;100273.03;1085676;54;20038;-77
2022/03/06 01:21:50;;;;;;;15.82;9.65;;;;;;;2.58;46.15;100276.91;1085901;47;20049;-77
2022/03/06 01:22:53;;;;;;;14.55;9.45;;;;;;;2.54;46.16;100275.41;1085349;54;20039;-77
2022/03/06 01:23:57;;;;;;;15.25;9.77;;;;;;;2.55;45.96;100271.78;1085501;54;20030;-78
2022/03/06 01:24:58;;;;;;;17.08;10.48;;;;;;;2.55;46.24;100277.06;1085994;47;20037;-78
2022/03/06 01:26:03;;;;;;;13.80;8.90;;;;;;;2.50;46.38;100271.22;1085667;54;20569;-77
2022/03/06 01:27:04;;;;;;;15.98;9.30;;;;;;;2.49;46.38;100272.16;1085554;47;20042;-78
2022/03/06 01:28:09;;;;;;;15.60;9.60;;;;;;;2.50;46.21;100272.06;1086414;39;20437;-78
2022/03/06 01:29:10;;;;;;;15.65;9.52;;;;;;;2.51;46.29;100275.56;1085556;47;20039;-77
2022/03/06 01:30:16;;;;;;;14.55;9.35;;;;;;;2.55;46.22;100277.06;1084973;54;20069;-78
2022/03/06 01:31:18;;;;;;;14.20;9.27;;;;;;;2.55;46.29;100277.06;1085419;54;20034;-78
2022/03/06 01:32:22;;;;;;;13.88;9.18;;;;;;;2.52;46.26;100285.19;1085543;54;20077;-77
2022/03/06 01:33:27;;;;;;;14.57;8.98;;;;;;;2.52;46.34;100274.63;1085623;54;20046;-78
2022/03/06 01:34:31;;;;;;;13.57;8.93;;;;;;;2.53;46.38;100276.34;1085825;54;20663;-78
2022/03/06 01:35:32;;;;;;;14.02;9.55;;;;;;;2.51;46.39;100275.56;1086400;47;20061;-78
2022/03/06 01:36:37;;;;;;;17.27;10.35;;;;;;;2.53;46.27;100270.19;1086249;39;20444;-77
2022/03/06 01:37:38;;;;;;;14.60;9.60;;;;;;;2.52;46.61;100277.28;1085492;54;20603;-77
2022/03/06 01:38:43;;;;;;;14.15;8.85;;;;;;;2.56;46.44;100276.16;1085738;54;20038;-77
2022/03/06 01:39:44;;;;;;;14.05;9.52;;;;;;;2.56;46.32;100278.78;1086805;47;20119;-78
2022/03/06 01:40:48;;;;;;;14.13;9.27;;;;;;;2.58;46.53;100274.28;1085641;54;20615;-77
2022/03/06 01:41:50;;;;;;;14.40;8.80;;;;;;;2.59;46.39;100268.06;1085818;54;20050;-77
2022/03/06 01:42:54;;;;;;;14.38;9.63;;;;;;;2.61;46.49;100263.56;1085772;47;20030;-78
2022/03/06 01:43:56;;;;;;;15.68;9.60;;;;;;;2.59;46.63;100273.34;1085653;54;20030;-78
2022/03/06 01:45:00;;;;;;;15.35;9.25;;;;;;;2.59;46.52;100268.06;1085666;54;20027;-77
2022/03/06 01:46:02;;;;;;;16.13;10.13;;;;;;;2.58;46.75;100269.00;1085363;47;20030;-78
2022/03/06 01:47:07;;;;;;;14.20;9.13;;;;;;;2.54;46.63;100270.13;1084666;54;20042;-77
2022/03/06 01:48:09;;;;;;;15.73;9.45;;;;;;;2.56;46.58;100268.22;1085217;54;20042;-78
2022/03/06 01:49:16;;;;;;;16.20;10.30;;;;;;;2.50;46.92;100273.88;1085379;54;20038;-77
2022/03/06 01:50:20;;;;;;;14.93;10.88;;;;;;;2.50;46.84;100271.22;1085499;54;20041;-77
2022/03/06 01:51:24;;;;;;;16.55;11.32;;;;;;;2.49;46.91;100264.25;1085802;46;20034;-78
2022/03/06 01:52:25;;;;;;;15.75;9.73;;;;;;;2.50;46.87;100266.78;1085356;46;20887;-78
2022/03/06 01:53:29;;;;;;;14.65;10.45;;;;;;;2.50;46.94;100265.94;1085009;54;20154;-78
2022/03/06 01:54:31;;;;;;;15.75;10.10;;;;;;;2.48;46.88;100259.91;1084977;54;20065;-78
2022/03/06 01:55:36;;;;;;;15.52;9.63;;;;;;;2.41;47.32;100267.31;1085090;54;20035;-78
2022/03/06 01:56:37;;;;;;;16.38;10.70;;;;;;;2.40;47.47;100263.00;1085230;54;20034;-78
2022/03/06 01:57:43;;;;;;;16.25;11.05;;;;;;;2.41;47.34;100269.09;1085113;54;20042;-77
2022/03/06 01:58:44;;;;;;;15.80;10.73;;;;;;;2.40;47.36;100267.41;1085269;54;20073;-77
2022/03/06 01:59:48;;;;;;;16.63;10.65;;;;;;;2.39;47.51;100260.41;1085107;54;20571;-77
2022/03/06 02:00:53;;;;;;;15.38;10.00;;;;;;;2.38;47.54;100264.00;1086044;46;20033;-77
2022/03/06 02:01:54;;;;;;;16.08;10.38;;;;;;;2.41;47.36;100272.59;1085976;54;20034;-77
2022/03/06 02:02:59;;;;;;;14.75;9.60;;;;;;;2.39;47.67;100265.69;1087780;54;20030;-79
2022/03/06 02:04:03;;;;;;;15.07;9.52;;;;;;;2.46;47.44;100267.03;1088007;54;20103;-77
2022/03/06 02:05:08;;;;;;;14.63;9.63;;;;;;;2.47;47.39;100264.34;1088159;54;20046;-77
2022/03/06 02:06:13;;;;;;;14.43;9.30;;;;;;;2.48;47.56;100265.19;1088854;46;20011;-78
2022/03/06 02:07:14;;;;;;;15.57;9.75;;;;;;;2.48;47.59;100259.91;1088346;46;20053;-77
2022/03/06 02:08:18;;;;;;;14.50;9.35;;;;;;;2.54;47.29;100264.84;1088137;54;20038;-77
2022/03/06 02:09:20;;;;;;;14.50;8.95;;;;;;;2.46;47.42;100256.50;1087769;54;20041;-77
2022/03/06 02:10:24;;;;;;;14.75;9.95;;;;;;;2.48;47.62;100258.13;1089063;39;20528;-78
2022/03/06 02:11:29;;;;;;;17.17;10.60;;;;;;;2.49;47.50;100256.31;1085909;54;20305;-78
2022/03/06 02:12:31;;;;;;;14.48;9.30;;;;;;;2.53;47.46;100252.59;1085510;54;20038;-78
2022/03/06 02:13:35;;;;;;;14.38;9.48;;;;;;;2.56;47.42;100262.94;1085882;54;20034;-78
2022/03/06 02:14:37;;;;;;;14.60;9.77;;;;;;;2.56;47.52;100252.38;1085815;54;20062;-78
2022/03/06 02:15:41;;;;;;;15.50;8.93;;;;;;;2.61;47.24;100254.75;1086660;39;20418;-78
2022/03/06 02:16:43;;;;;;;17.63;10.25;;;;;;;2.57;47.48;100255.91;1086265;39;20496;-78
2022/03/06 02:17:48;;;;;;;15.15;9.77;;;;;;;2.52;47.76;100258.81;1086120;54;20035;-78
2022/03/06 02:18:52;;;;;;;15.68;10.10;;;;;;;2.48;47.69;100255.50;1085941;54;20042;-77
2022/03/06 02:19:55;;;;;;;15.13;9.75;;;;;;;2.48;47.81;100259.91;1085535;54;20038;-77
2022/03/06 02:21:08;;;;;;;14.18;9.80;;;;;;;2.45;47.88;100262.72;1085691;54;20098;-78
2022/03/06 02:22:10;;;;;;;16.75;10.68;;;;;;;2.46;47.94;100248.56;1086596;46;20069;-77
2022/03/06 02:23:15;;;;;;;14.77;10.13;;;;;;;2.42;48.31;100255.81;1088382;54;20038;-76
2022/03/06 02:24:17;;;;;;;15.98;10.98;;;;;;;2.38;48.22;100259.59;1088381;54;20058;-77
2022/03/06 02:25:23;;;;;;;16.23;10.20;;;;;;;2.38;48.33;100250.81;1088361;54;20090;-79
2022/03/06 02:26:27;;;;;;;16.65;10.75;;;;;;;2.30;48.40;100252.09;1089013;46;20027;-78
2022/03/06 02:27:28;;;;;;;14.50;9.55;;;;;;;2.30;48.61;100252.09;1086676;54;20046;-78
2022/03/06 02:28:33;;;;;;;17.35;10.07;;;;;;;2.31;48.46;100253.81;1085849;54;20038;-78
2022/03/06 02:29:34;;;;;;;14.88;10.15;;;;;;;2.27;48.60;100257.53;1085887;54;20043;-78
2022/03/06 02:30:41;;;;;;;16.77;10.10;;;;;;;2.36;48.36;100257.97;1086172;54;20038;-78
2022/03/06 02:31:42;;;;;;;15.93;9.65;;;;;;;2.34;48.36;100253.63;1085895;54;20045;-78
2022/03/06 02:32:48;;;;;;;15.18;9.70;;;;;;;2.40;48.44;100255.06;1086213;54;20573;-78
2022/03/06 02:33:50;;;;;;;18.33;9.15;;;;;;;2.37;48.43;100254.38;1085975;54;20106;-78
2022/03/06 02:34:54;;;;;;;15.77;10.43;;;;;;;2.35;48.56;100249.19;1085837;54;20038;-78
2022/03/06 02:35:59;;;;;;;15.10;10.40;;;;;;;2.32;48.82;100244.09;1085974;54;20054;-78
2022/03/06 02:37:03;;;;;;;13.55;9.30;;;;;;;2.34;48.97;100248.34;1086363;39;20658;-78
2022/03/06 02:38:08;;;;;;;14.30;9.70;;;;;;;2.35;48.83;100249.19;1086112;39;20539;-78
2022/03/06 02:39:10;;;;;;;15.38;9.75;;;;;;;2.39;48.66;100249.88;1085589;47;20561;-78
2022/03/06 02:40:16;;;;;;;15.57;10.85;;;;;;;2.40;48.62;100247.16;1085528;54;20058;-77
2022/03/06 02:41:17;;;;;;;15.75;9.63;;;;;;;2.39;48.76;100249.88;1085598;54;20046;-79
2022/03/06 02:42:29;;;;;;;14.27;9.55;;;;;;;2.32;48.95;100239.69;1085593;54;20050;-78
2022/03/06 02:43:33;;;;;;;15.32;10.38;;;;;;;2.34;49.16;100258.03;1085570;54;20067;-78
2022/03/06 02:44:34;;;;;;;15.10;10.07;;;;;;;2.33;49.08;100257.22;1085519;54;20042;-77
2022/03/06 02:45:40;;;;;;;16.85;10.00;;;;;;;2.31;49.06;100250.31;1085729;54;20068;-78
2022/03/06 02:46:45;;;;;;;15.07;9.48;;;;;;;2.32;49.27;100257.28;1086123;31;20598;-78
2022/03/06 02:47:50;;;;;;;16.42;10.57;;;;;;;2.30;49.32;100257.38;1085376;54;20041;-79
2022/03/06 02:48:52;;;;;;;16.67;10.55;;;;;;;2.29;49.32;100252.19;1085620;54;20042;-77
2022/03/06 02:49:56;;;;;;;15.57;9.88;;;;;;;2.24;49.22;100257.72;1085744;54;20038;-77
2022/03/06 02:51:00;;;;;;;15.35;10.13;;;;;;;2.22;49.46;100256.13;1085623;54;20038;-78
2022/03/06 02:52:08;;;;;;;16.88;10.05;;;;;;;2.19;49.60;100254.47;1085382;54;20046;-78
2022/03/06 02:53:12;;;;;;;15.48;10.68;;;;;;;2.23;49.44;100258.66;1085558;54;20073;-77
2022/03/06 02:54:17;;;;;;;15.80;10.35;;;;;;;2.25;49.50;100259.44;1085363;54;20632;-77
2022/03/06 02:55:21;;;;;;;15.60;10.70;;;;;;;2.21;49.57;100257.06;1086524;39;20132;-78
2022/03/06 02:56:22;;;;;;;19.15;11.13;;;;;;;2.15;50.01;100263.53;1085664;47;20035;-78
2022/03/06 02:57:27;;;;;;;15.15;10.30;;;;;;;2.15;49.82;100250.34;1085668;54;20548;-77
2022/03/06 02:58:31;;;;;;;15.48;10.07;;;;;;;2.19;49.72;100254.47;1085719;54;20054;-78
2022/03/06 02:59:32;;;;;;;15.63;10.18;;;;;;;2.23;49.66;100252.50;1085900;54;20050;-77
2022/03/06 03:00:37;;;;;;;14.48;9.60;;;;;;;2.24;49.57;100252.44;1085655;54;20146;-78
2022/03/06 03:01:41;;;;;;;15.70;10.32;;;;;;;2.22;50.03;100253.47;1085404;54;20038;-78
2022/03/06 03:02:45;;;;;;;14.77;9.43;;;;;;;2.22;49.83;100256.97;1085870;46;20034;-77
2022/03/06 03:03:47;;;;;;;15.68;10.57;;;;;;;2.18;50.23;100263.31;1085831;54;20580;-78
2022/03/06 03:04:51;;;;;;;15.30;9.73;;;;;;;2.17;50.33;100256.38;1085658;54;20034;-78
2022/03/06 03:05:53;;;;;;;15.55;10.23;;;;;;;2.13;50.31;100260.94;1085667;54;20042;-79
2022/03/06 03:06:57;;;;;;;16.55;11.25;;;;;;;2.13;50.61;100260.09;1085403;54;20122;-78
2022/03/06 03:08:04;;;;;;;14.30;9.60;;;;;;;2.13;50.38;100266.22;1085356;54;20066;-77
2022/03/06 03:09:06;;;;;;;16.40;11.27;;;;;;;2.16;50.41;100265.22;1085495;54;20679;-77
2022/03/06 03:10:12;;;;;;;15.82;10.73;;;;;;;2.15;50.55;100260.88;1085430;54;20651;-77
2022/03/06 03:11:13;;;;;;;15.55;9.38;;;;;;;2.14;50.54;100261.81;1085313;54;20133;-79
2022/03/06 03:12:18;;;;;;;15.52;10.73;;;;;;;2.15;50.57;100255.59;1084818;54;20042;-78
2022/03/06 03:13:22;;;;;;;15.45;10.10;;;;;;;2.15;50.77;100255.59;1085463;54;20038;-77
2022/03/06 03:14:23;;;;;;;18.33;11.15;;;;;;;2.15;50.86;100256.44;1085681;54;20050;-77
2022/03/06 03:15:27;;;;;;;14.70;10.18;;;;;;;2.13;50.82;100258.31;1085614;54;20038;-77
2022/03/06 03:16:29;;;;;;;15.93;11.05;;;;;;;2.13;50.98;100266.22;1085499;54;20061;-78
2022/03/06 03:17:33;;;;;;;15.60;10.15;;;;;;;2.11;51.15;100270.75;1085580;54;20045;-78
2022/03/06 03:18:35;;;;;;;16.55;10.75;;;;;;;2.11;50.98;100261.97;1086065;46;20062;-78
2022/03/06 03:19:39;;;;;;;16.05;10.38;;;;;;;2.09;51.41;100267.34;1085594;54;20038;-78
2022/03/06 03:20:44;;;;;;;15.50;9.73;;;;;;;2.10;51.30;100265.53;1085587;54;20600;-77
2022/03/06 03:21:45;;;;;;;15.57;9.52;;;;;;;2.08;51.40;100263.00;1085414;54;20073;-79
2022/03/06 03:22:49;;;;;;;16.42;10.35;;;;;;;2.09;51.67;100261.19;1085782;54;20039;-78
2022/03/06 03:23:54;;;;;;;13.60;9.85;;;;;;;2.10;51.53;100265.53;1085676;54;20038;-78
2022/03/06 03:24:58;;;;;;;16.23;9.93;;;;;;;2.15;51.44;100272.28;1085618;54;20049;-78
2022/03/06 03:26:00;;;;;;;15.82;10.50;;;;;;;2.15;51.60;100274.06;1085893;54;20039;-80
2022/03/06 03:27:04;;;;;;;15.35;10.45;;;;;;;2.12;51.66;100267.19;1085801;54;20039;-77
2022/03/06 03:28:05;;;;;;;15.48;10.02;;;;;;;2.12;51.52;100264.53;1086132;39;20464;-78
2022/03/06 03:29:10;;;;;;;14.70;10.10;;;;;;;2.13;51.74;100262.75;1085654;54;20042;-78
2022/03/06 03:30:12;;;;;;;16.92;10.35;;;;;;;2.12;51.96;100266.31;1085343;54;20043;-78
2022/03/06 03:31:16;;;;;;;14.90;10.50;;;;;;;2.14;51.69;100261.81;1085720;54;20058;-78
2022/03/06 03:32:18;;;;;;;17.27;10.43;;;;;;;2.15;51.56;100267.00;1085390;54;20046;-77
2022/03/06 03:33:22;;;;;;;15.68;10.05;;;;;;;2.17;51.79;100266.94;1085618;54;20038;-78
2022/03/06 03:34:23;;;;;;;14.73;10.57;;;;;;;2.17;51.53;100275.69;1085723;54;20042;-78
2022/03/06 03:35:28;;;;;;;15.45;10.18;;;;;;;2.18;51.48;100273.88;1085641;54;20141;-76
2022/03/06 03:36:30;;;;;;;14.35;9.85;;;;;;;2.17;51.70;100274.84;1085854;54;20038;-78
2022/03/06 03:37:34;;;;;;;16.67;11.13;;;;;;;2.15;52.15;100274.06;1085780;54;20038;-78
2022/03/06 03:38:36;;;;;;;15.13;10.27;;;;;;;2.16;51.90;100273.97;1085840;54;20046;-78
2022/03/06 03:39:43;;;;;;;16.67;11.32;;;;;;;2.13;52.20;100274.13;1085619;54;20576;-78
2022/03/06 03:40:44;;;;;;;17.42;11.00;;;;;;;2.14;52.22;100280.28;1085744;54;20038;-77
2022/03/06 03:41:49;;;;;;;15.98;10.95;;;;;;;2.14;52.20;100277.63;1085518;54;20038;-77
2022/03/06 03:42:53;;;;;;;16.63;10.68;;;;;;;2.14;52.13;100285.56;1085631;54;20047;-78
2022/03/06 03:43:54;;;;;;;13.48;9.93;;;;;;;2.12;52.05;100282.16;1085708;54;20039;-79
2022/03/06 03:44:58;;;;;;;16.27;10.85;;;;;;;2.12;52.29;100282.16;1086470;31;20627;-77
2022/03/06 03:46:00;;;;;;;15.80;11.05;;;;;;;2.11;52.41;100283.06;1085965;39;20761;-78
2022/03/06 03:47:05;;;;;;;17.38;10.60;;;;;;;2.12;52.34;100285.66;1085391;54;20035;-77
2022/03/06 03:48:09;;;;;;;15.05;9.88;;;;;;;2.12;52.35;100285.66;1085725;54;20058;-79
2022/03/06 03:49:11;;;;;;;16.98;10.75;;;;;;;2.17;52.27;100288.03;1085682;54;20034;-78
2022/03/06 03:50:15;;;;;;;15.65;10.40;;;;;;;2.12;52.50;100288.28;1085762;54;20046;-78
2022/03/06 03:51:17;;;;;;;19.45;11.65;;;;;;;2.18;52.49;100287.94;1086166;54;20038;-79
2022/03/06 03:52:21;;;;;;;17.02;11.50;;;;;;;2.20;52.32;100295.75;1085889;54;20045;-78
2022/03/06 03:53:29;;;;;;;18.00;11.50;;;;;;;2.15;52.72;100290.72;1086400;54;20039;-79
2022/03/06 03:54:33;;;;;;;15.75;10.45;;;;;;;2.21;52.25;100296.63;1087855;39;20551;-78
2022/03/06 03:55:37;;;;;;;14.98;10.45;;;;;;;2.25;52.11;100296.38;1087146;39;20493;-79
2022/03/06 03:56:42;;;;;;;15.30;10.05;;;;;;;2.26;52.16;100297.22;1086067;54;20040;-79
2022/03/06 03:57:44;;;;;;;17.48;11.05;;;;;;;2.28;52.30;100293.53;1086019;54;20094;-78
2022/03/06 03:58:48;;;;;;;17.00;10.75;;;;;;;2.29;52.10;100292.59;1086650;54;20039;-78
2022/03/06 03:59:50;;;;;;;16.08;10.50;;;;;;;2.27;52.27;100298.91;1087090;54;20042;-78
2022/03/06 04:00:55;;;;;;;16.95;11.10;;;;;;;2.27;52.20;100299.75;1088872;39;20285;-78
2022/03/06 04:01:57;;;;;;;15.43;9.75;;;;;;;2.31;52.11;100298.66;1089178;46;20018;-78
2022/03/06 04:03:01;;;;;;;14.30;9.50;;;;;;;2.38;51.89;100303.56;1087793;54;20041;-78
2022/03/06 04:04:04;;;;;;;14.80;9.93;;;;;;;2.40;51.95;100305.22;1087885;54;20039;-79
2022/03/06 04:05:09;;;;;;;16.10;11.15;;;;;;;2.40;51.92;100296.44;1087920;46;20101;-79
2022/03/06 04:06:11;;;;;;;15.25;10.50;;;;;;;2.38;52.20;100300.94;1087225;54;20038;-78
2022/03/06 04:07:15;;;;;;;12.98;9.27;;;;;;;2.45;51.92;100303.16;1087242;54;20576;-78
2022/03/06 04:08:17;;;;;;;15.45;10.00;;;;;;;2.44;52.12;100300.63;1086982;54;20070;-79
2022/03/06 04:09:21;;;;;;;14.82;9.93;;;;;;;2.41;52.02;100298.13;1086945;47;20093;-78
2022/03/06 04:10:23;;;;;;;14.38;9.95;;;;;;;2.37;52.27;100304.50;1086315;54;20035;-78
2022/03/06 04:11:29;;;;;;;16.55;10.40;;;;;;;2.31;52.39;100306.56;1086338;54;20038;-78
2022/03/06 04:12:31;;;;;;;17.13;11.57;;;;;;;2.32;52.61;100300.34;1088667;39;20793;-81
2022/03/06 04:13:35;;;;;;;16.63;11.30;;;;;;;2.31;52.61;100296.00;1087107;54;20038;-78
2022/03/06 04:14:37;;;;;;;16.58;10.48;;;;;;;2.32;52.56;100307.41;1087601;54;20035;-78
2022/03/06 04:15:45;;;;;;;15.15;10.13;;;;;;;2.34;52.34;100305.53;1088240;46;20069;-78
2022/03/06 04:16:55;;;;;;;15.80;10.95;;;;;;;2.29;52.86;100308.44;1088310;46;20030;-78
2022/03/06 04:17:57;;;;;;;;;;;;;;;2.16;53.16;100310.06;1087589;46;20038;-79
2022/03/06 04:19:01;;;;;;;16.48;10.05;;;;;;;2.19;52.70;100312.50;1087258;54;20154;-78
2022/03/06 04:20:04;;;;;;;15.98;10.52;;;;;;;2.22;52.82;100303.59;1087722;54;20046;-78
2022/03/06 04:21:08;;;;;;;17.10;11.05;;;;;;;2.20;53.13;100313.38;1087595;54;20057;-79
2022/03/06 04:22:10;;;;;;;17.40;12.10;;;;;;;2.20;53.18;100314.22;1087290;54;20057;-78
2022/03/06 04:23:20;;;;;;;15.18;10.57;;;;;;;2.18;53.16;100305.53;1087551;54;20027;-78
2022/03/06 04:24:22;;;;;;;17.35;10.80;;;;;;;2.18;53.17;100316.97;1087727;54;20045;-79
2022/03/06 04:25:27;;;;;;;16.55;11.07;;;;;;;2.22;53.11;100309.72;1087539;54;20030;-78
2022/03/06 04:26:34;;;;;;;15.82;10.63;;;;;;;2.28;52.82;100317.28;1087271;54;20039;-78
2022/03/06 04:27:36;;;;;;;15.55;10.60;;;;;;;2.27;52.81;100315.56;1085859;54;20042;-78
2022/03/06 04:28:40;;;;;;;13.73;9.27;;;;;;;2.32;52.97;100308.28;1085295;54;20042;-78
2022/03/06 04:29:42;;;;;;;15.10;10.13;;;;;;;2.37;52.75;100315.94;1085460;39;20691;-78
2022/03/06 04:30:48;;;;;;;15.15;10.40;;;;;;;2.32;52.74;100313.56;1087154;39;20628;-78
2022/03/06 04:31:49;;;;;;;14.93;9.68;;;;;;;2.34;52.62;100319.59;1085866;54;20126;-78
2022/03/06 04:32:54;;;;;;;15.63;10.52;;;;;;;2.35;52.65;100320.44;1085724;54;20599;-79
2022/03/06 04:33:56;;;;;;;14.68;10.02;;;;;;;2.35;53.02;100323.06;1085677;54;20053;-79
2022/03/06 04:35:00;;;;;;;15.63;10.38;;;;;;;2.44;52.61;100316.44;1086516;54;20027;-78
2022/03/06 04:36:03;;;;;;;13.68;9.30;;;;;;;2.47;52.52;100317.13;1086895;54;20034;-78
2022/03/06 04:37:07;;;;;;;14.82;10.02;;;;;;;2.46;52.48;100315.41;1086473;54;20042;-77
2022/03/06 04:38:09;;;;;;;16.42;10.32;;;;;;;2.44;52.82;100316.44;1086710;54;20042;-78
2022/03/06 04:39:14;;;;;;;15.73;10.85;;;;;;;2.43;52.75;100317.38;1086155;39;20492;-78
2022/03/06 04:40:15;;;;;;;14.52;9.90;;;;;;;2.38;53.10;100312.38;1086253;39;20501;-79
2022/03/06 04:41:20;;;;;;;16.42;11.38;;;;;;;2.38;53.21;100314.13;1086318;39;20441;-79
2022/03/06 04:42:24;;;;;;;15.77;10.25;;;;;;;2.44;52.96;100317.28;1085531;54;20034;-78
2022/03/06 04:43:28;;;;;;;14.95;10.00;;;;;;;2.46;52.91;100314.56;1085863;54;20031;-78
2022/03/06 04:44:31;;;;;;;16.10;10.35;;;;;;;2.45;52.90;100320.78;1085875;54;20054;-78
2022/03/06 04:45:35;;;;;;;14.30;9.63;;;;;;;2.49;52.62;100311.75;1086016;54;20062;-78
2022/03/06 04:46:36;;;;;;;18.20;11.18;;;;;;;2.45;52.90;100321.63;1085131;54;20614;-79
2022/03/06 04:47:41;;;;;;;15.50;9.98;;;;;;;2.50;52.74;100319.56;1085204;54;20034;-78
2022/03/06 04:48:43;;;;;;;14.23;9.70;;;;;;;2.50;52.71;100316.09;1085681;39;20520;-79
2022/03/06 04:49:47;;;;;;;15.10;10.20;;;;;;;2.49;52.85;100324.94;1085841;54;20117;-79
2022/03/06 04:50:49;;;;;;;16.98;10.85;;;;;;;2.53;52.80;100321.22;1085807;54;20070;-78
2022/03/06 04:51:54;;;;;;;15.00;10.55;;;;;;;2.43;53.07;100323.50;1085991;54;20822;-78
2022/03/06 04:52:55;;;;;;;15.15;10.85;;;;;;;2.47;52.87;100330.31;1084883;54;20042;-78
2022/03/06 04:54:01;;;;;;;15.52;10.38;;;;;;;2.43;53.03;100331.41;1085138;54;20038;-78